Time;durP1;ratioP1;P1;durP2;ratioP2;P2;SDS_P1;SDS_P2;PMS_P1;PMS_P2;Temp;Humidity;BMP_temperature;BMP_pressure;BME280_temperature;BME280_humidity;BME280_pressure;Samples;Min_cycle;Max_cycle;Signal;HPM_P1;HPM_P2
2022/06/27 00:02:17;;;;;;;6.28;3.55;;;21.90;66.90;;;;;;2241463;60;21165;-84
2022/06/27 00:04:44;;;;;;;5.35;3.03;;;21.90;67.10;;;;;;2464864;56;21557;-84
2022/06/27 00:07:12;;;;;;;4.00;3.50;;;21.90;67.30;;;;;;2241294;60;21645;-84
2022/06/27 00:09:39;;;;;;;3.67;3.37;;;21.90;67.30;;;;;;2465431;56;21820;-84
2022/06/27 00:12:09;;;;;;;3.78;3.40;;;21.80;67.20;;;;;;2465289;55;21093;-83
2022/06/27 00:14:37;;;;;;;3.53;3.22;;;21.80;67.30;;;;;;2465530;56;21197;-83
2022/06/27 00:17:05;;;;;;;3.65;3.35;;;21.80;67.40;;;;;;2464652;56;21094;-84
2022/06/27 00:19:32;;;;;;;5.80;3.12;;;21.80;67.60;;;;;;2241349;60;21109;-82
2022/06/27 00:22:00;;;;;;;3.83;3.10;;;21.80;67.50;;;;;;2241494;60;21073;-84
2022/06/27 00:24:27;;;;;;;4.72;2.70;;;21.70;67.30;;;;;;2241491;60;21681;-83
2022/06/27 00:26:55;;;;;;;4.20;2.95;;;21.70;68.30;;;;;;2464931;56;21086;-83
2022/06/27 00:29:22;;;;;;;3.90;3.10;;;21.70;67.60;;;;;;2465452;56;21094;-82
2022/06/27 00:31:50;;;;;;;4.30;2.72;;;21.70;67.70;;;;;;2241460;60;21097;-83
2022/06/27 00:34:17;;;;;;;4.05;2.95;;;21.70;67.80;;;;;;2240606;60;21096;-84
2022/06/27 00:36:45;;;;;;;4.20;3.10;;;21.60;67.80;;;;;;2464778;56;21077;-83
2022/06/27 00:39:12;;;;;;;3.83;3.10;;;21.60;67.80;;;;;;2241415;60;21089;-84
2022/06/27 00:41:40;;;;;;;4.40;3.30;;;21.60;68.00;;;;;;2241281;60;21097;-84
2022/06/27 00:44:09;;;;;;;6.65;2.80;;;21.60;68.10;;;;;;2241040;60;21597;-83
2022/06/27 00:46:36;;;;;;;3.67;3.25;;;21.50;68.10;;;;;;2464832;56;21189;-84
2022/06/27 00:49:04;;;;;;;4.85;3.20;;;21.50;68.30;;;;;;2241008;60;21125;-83
2022/06/27 00:51:32;;;;;;;4.07;2.83;;;21.50;68.60;;;;;;2465375;56;21093;-83
2022/06/27 00:54:03;;;;;;;5.62;3.58;;;21.50;68.60;;;;;;2465315;56;21066;-83
2022/06/27 00:56:31;;;;;;;4.05;3.03;;;21.50;68.60;;;;;;2464864;56;21188;-83
2022/06/27 00:58:58;;;;;;;3.25;2.80;;;21.50;68.70;;;;;;2465212;56;21165;-84
2022/06/27 01:01:26;;;;;;;4.25;2.80;;;21.50;68.70;;;;;;2465364;56;21113;-83
2022/06/27 01:03:53;;;;;;;4.47;3.45;;;21.50;68.70;;;;;;2240724;60;21081;-83
2022/06/27 01:06:21;;;;;;;5.30;3.60;;;21.60;68.70;;;;;;2464903;56;21237;-83
2022/06/27 01:08:49;;;;;;;6.07;3.20;;;21.60;68.70;;;;;;2464963;56;21780;-83
2022/06/27 01:11:16;;;;;;;4.18;3.00;;;21.60;68.90;;;;;;2465223;56;21201;-83
2022/06/27 01:13:44;;;;;;;5.57;4.03;;;21.60;69.00;;;;;;2464976;55;21157;-84
2022/06/27 01:16:11;;;;;;;3.83;3.30;;;21.60;69.10;;;;;;2464625;56;21077;-83
2022/06/27 01:18:39;;;;;;;4.45;3.85;;;21.60;69.10;;;;;;2464863;56;21074;-83
2022/06/27 01:21:08;;;;;;;5.05;3.12;;;21.60;69.20;;;;;;2241009;60;21156;-83
2022/06/27 01:23:35;;;;;;;4.47;2.87;;;21.60;69.30;;;;;;2463778;56;21088;-83
2022/06/27 01:26:03;;;;;;;4.25;3.47;;;21.60;69.30;;;;;;2464313;56;21073;-84
2022/06/27 01:28:31;;;;;;;3.97;3.30;;;21.60;69.40;;;;;;2465256;56;21144;-83
2022/06/27 01:30:58;;;;;;;4.57;3.80;;;21.60;69.50;;;;;;2465113;56;21078;-83
2022/06/27 01:33:26;;;;;;;4.60;3.87;;;21.60;69.50;;;;;;2240558;60;21182;-83
2022/06/27 01:36:41;;;;;;;6.57;3.35;;;21.60;69.70;;;;;;2464781;56;21101;-84
2022/06/27 01:39:09;;;;;;;6.43;3.62;;;21.60;69.90;;;;;;2464985;56;21134;-84
2022/06/27 01:41:37;;;;;;;4.82;3.00;;;21.50;69.90;;;;;;2241484;60;21085;-84
2022/06/27 01:44:05;;;;;;;5.05;3.28;;;21.50;70.10;;;;;;2465083;56;21077;-83
2022/06/27 01:46:40;;;;;;;4.05;3.37;;;21.50;70.30;;;;;;2465269;56;21117;-83
2022/06/27 01:49:07;;;;;;;5.90;4.28;;;21.50;70.40;;;;;;2464825;56;21730;-83
2022/06/27 01:51:35;;;;;;;4.35;3.28;;;21.50;70.40;;;;;;2465107;56;21079;-83
2022/06/27 01:54:03;;;;;;;5.57;3.87;;;21.50;70.50;;;;;;2464735;56;21137;-83
2022/06/27 01:56:31;;;;;;;5.25;3.70;;;21.50;70.60;;;;;;2464676;56;21074;-83
2022/06/27 01:58:59;;;;;;;4.82;3.25;;;21.50;70.60;;;;;;2464617;56;21073;-83
2022/06/27 02:01:27;;;;;;;4.87;3.22;;;21.60;70.70;;;;;;2241293;60;21125;-84
2022/06/27 02:03:56;;;;;;;4.82;3.37;;;21.60;70.60;;;;;;2241300;60;21177;-83
2022/06/27 02:06:24;;;;;;;3.87;3.08;;;21.70;70.10;;;;;;2241367;60;21164;-84
2022/06/27 02:08:52;;;;;;;6.32;4.10;;;21.70;69.50;;;;;;2465696;56;21549;-84
2022/06/27 02:11:20;;;;;;;5.35;3.70;;;21.70;69.80;;;;;;2465347;56;21201;-83
2022/06/27 02:13:48;;;;;;;3.60;3.30;;;21.70;70.90;;;;;;2242122;60;21150;-84
2022/06/27 02:16:20;;;;;;;4.18;3.08;;;21.60;70.20;;;;;;2465026;56;21078;-83
2022/06/27 02:18:48;;;;;;;5.15;3.37;;;21.50;70.40;;;;;;2242650;60;21109;-83
2022/06/27 02:21:19;;;;;;;8.00;3.55;;;21.50;70.50;;;;;;2467116;56;21078;-83
2022/06/27 02:23:47;;;;;;;6.68;3.40;;;21.50;70.50;;;;;;2242246;60;21765;-84
2022/06/27 02:26:20;;;;;;;5.03;3.17;;;21.60;70.40;;;;;;2466935;56;21061;-83
2022/06/27 02:28:49;;;;;;;4.95;3.47;;;21.50;70.10;;;;;;2241935;60;21093;-83
2022/06/27 02:31:16;;;;;;;4.03;3.40;;;21.50;70.10;;;;;;2242521;60;21074;-83
2022/06/27 02:33:47;;;;;;;4.45;3.28;;;21.50;69.90;;;;;;2243224;60;21094;-83
2022/06/27 02:36:22;;;;;;;6.15;3.97;;;21.60;69.80;;;;;;2241490;60;21161;-83
2022/06/27 02:38:53;;;;;;;3.87;3.37;;;21.50;69.70;;;;;;2466724;56;21065;-84
2022/06/27 02:41:28;;;;;;;5.25;3.40;;;21.50;69.40;;;;;;2466375;56;21086;-83
2022/06/27 02:44:02;;;;;;;7.03;3.58;;;21.50;69.40;;;;;;2467025;56;21066;-84
2022/06/27 02:46:32;;;;;;;;;;;21.60;69.30;;;;;;2245429;60;21073;-83
2022/06/27 02:49:03;;;;;;;5.12;3.40;;;21.60;69.00;;;;;;2465849;56;20130;-83
2022/06/27 02:51:41;;;;;;;4.25;3.47;;;21.50;68.60;;;;;;2241946;60;21145;-83
2022/06/27 02:54:11;;;;;;;5.70;3.50;;;21.50;69.00;;;;;;2241297;60;21128;-83
2022/06/27 02:56:47;;;;;;;4.20;3.25;;;21.50;69.10;;;;;;2466005;56;21118;-84
2022/06/27 02:59:20;;;;;;;3.92;2.97;;;21.40;69.00;;;;;;2465004;56;21070;-83
2022/06/27 03:01:49;;;;;;;5.30;3.65;;;21.40;69.00;;;;;;2465991;56;21795;-84
2022/06/27 03:04:16;;;;;;;6.32;3.03;;;21.30;68.90;;;;;;2466013;56;21090;-84
2022/06/27 03:06:46;;;;;;;4.32;2.90;;;21.30;68.70;;;;;;2241420;60;21081;-85
2022/06/27 03:09:14;;;;;;;6.82;3.50;;;21.20;68.80;;;;;;2241198;60;21554;-83
2022/06/27 03:11:42;;;;;;;5.22;3.50;;;21.20;69.00;;;;;;2465663;56;21084;-83
2022/06/27 03:14:09;;;;;;;4.18;3.33;;;21.10;69.10;;;;;;2241055;60;21459;-84
2022/06/27 03:16:37;;;;;;;4.62;2.85;;;21.10;69.30;;;;;;2465314;56;21141;-84
2022/06/27 03:19:04;;;;;;;4.45;3.00;;;21.10;69.50;;;;;;2465650;56;21082;-83
2022/06/27 03:21:32;;;;;;;3.72;2.72;;;21.00;69.50;;;;;;2465537;56;21176;-83
2022/06/27 03:24:00;;;;;;;5.95;3.42;;;21.00;69.80;;;;;;2465367;56;21165;-84
2022/06/27 03:26:28;;;;;;;5.07;2.83;;;20.90;69.90;;;;;;2464998;56;21097;-83
2022/06/27 03:28:55;;;;;;;4.55;3.00;;;20.90;69.90;;;;;;2465366;56;21213;-83
2022/06/27 03:31:23;;;;;;;4.85;3.00;;;20.90;70.10;;;;;;2465254;56;21233;-83
2022/06/27 03:33:50;;;;;;;4.72;3.05;;;20.90;70.00;;;;;;2465182;56;21102;-84
2022/06/27 03:36:18;;;;;;;5.75;2.87;;;20.90;70.00;;;;;;2241032;60;21093;-83
2022/06/27 03:38:45;;;;;;;7.22;3.00;;;20.90;70.10;;;;;;2241568;60;21062;-83
2022/06/27 03:41:13;;;;;;;5.95;3.35;;;20.90;70.40;;;;;;2240405;60;21125;-84
2022/06/27 03:43:41;;;;;;;3.75;2.92;;;20.90;70.20;;;;;;2464533;56;21118;-83
2022/06/27 03:46:09;;;;;;;6.18;3.08;;;20.90;70.30;;;;;;2465056;56;21074;-83
2022/06/27 03:51:32;;;;;;;3.67;2.60;;;21.00;69.70;;;;;;2139703;60;21166;-83
2022/06/27 03:53:59;;;;;;;2.45;2.15;;;21.00;69.20;;;;;;2241350;60;21161;-84
2022/06/27 03:56:27;;;;;;;4.07;2.72;;;21.00;69.20;;;;;;2465545;56;21093;-83
2022/06/27 03:59:02;;;;;;;5.32;2.62;;;21.00;68.90;;;;;;2242228;60;21180;-83
2022/06/27 04:01:30;;;;;;;7.05;2.47;;;21.00;69.10;;;;;;2241973;60;21073;-84
2022/06/27 04:03:58;;;;;;;4.82;2.60;;;20.90;69.00;;;;;;2466078;56;21113;-84
2022/06/27 04:06:28;;;;;;;6.60;2.90;;;21.00;69.00;;;;;;2465025;56;21181;-83
2022/06/27 04:08:57;;;;;;;6.07;3.12;;;20.90;68.90;;;;;;2465643;56;21062;-83
2022/06/27 04:11:24;;;;;;;4.97;2.67;;;21.00;69.10;;;;;;2339630;53;21069;-81
2022/06/27 04:13:52;;;;;;;5.10;2.65;;;20.90;69.40;;;;;;2269579;59;22074;-83
2022/06/27 04:16:19;;;;;;;5.10;3.00;;;20.90;69.30;;;;;;2273538;55;21087;-83
2022/06/27 04:18:47;;;;;;;6.22;3.00;;;20.90;69.30;;;;;;2274435;55;21529;-82
2022/06/27 04:21:14;;;;;;;5.40;2.85;;;20.90;69.50;;;;;;2266576;59;21076;-83
2022/06/27 04:23:41;;;;;;;3.47;2.47;;;20.90;69.60;;;;;;2275086;55;21139;-83
2022/06/27 04:26:09;;;;;;;4.50;2.60;;;20.80;69.70;;;;;;2266974;57;21107;-83
2022/06/27 04:28:36;;;;;;;5.25;2.92;;;20.80;69.70;;;;;;2272053;55;21681;-83
2022/06/27 04:31:04;;;;;;;3.50;2.40;;;20.80;69.80;;;;;;2268754;59;21066;-81
2022/06/27 04:33:31;;;;;;;3.62;2.30;;;20.60;70.20;;;;;;2269325;59;21140;-83
2022/06/27 04:36:00;;;;;;;6.82;3.00;;;20.70;70.40;;;;;;2294743;55;21068;-82
2022/06/27 04:38:28;;;;;;;7.40;2.87;;;20.60;70.40;;;;;;2268010;59;21068;-82
2022/06/27 04:40:55;;;;;;;6.45;2.75;;;20.50;70.60;;;;;;2267595;58;21084;-80
2022/06/27 04:43:22;;;;;;;3.70;2.53;;;20.40;71.00;;;;;;2266044;59;21138;-82
2022/06/27 04:45:52;;;;;;;4.00;2.78;;;20.40;71.20;;;;;;2266565;59;21124;-83
2022/06/27 04:48:20;;;;;;;3.83;2.40;;;20.30;71.80;;;;;;2266248;58;21144;-82
2022/06/27 04:50:48;;;;;;;4.70;2.33;;;20.20;72.00;;;;;;2267008;59;21075;-83
2022/06/27 04:53:15;;;;;;;3.90;2.95;;;20.20;72.40;;;;;;2266319;59;21112;-83
2022/06/27 04:55:43;;;;;;;5.32;2.95;;;20.10;72.50;;;;;;2265586;59;21075;-83
2022/06/27 04:58:10;;;;;;;4.37;2.75;;;20.10;72.90;;;;;;2265643;59;21088;-83
2022/06/27 05:00:38;;;;;;;3.85;2.90;;;20.10;73.30;;;;;;2271330;55;21217;-84
2022/06/27 05:03:05;;;;;;;6.62;2.90;;;20.10;73.40;;;;;;2266881;59;21509;-84
2022/06/27 05:05:33;;;;;;;4.10;2.67;;;20.10;73.70;;;;;;2265685;59;21114;-83
2022/06/27 05:08:01;;;;;;;5.25;2.75;;;20.10;73.70;;;;;;2271160;55;21088;-83
2022/06/27 05:10:28;;;;;;;2.83;2.37;;;20.10;73.90;;;;;;2267106;58;21128;-83
2022/06/27 05:12:56;;;;;;;5.12;2.58;;;20.20;73.90;;;;;;2267054;59;21135;-83
2022/06/27 05:15:23;;;;;;;4.35;2.60;;;20.30;73.60;;;;;;2266340;59;21107;-82
2022/06/27 05:17:51;;;;;;;5.68;2.67;;;20.30;73.50;;;;;;2271685;55;21146;-82
2022/06/27 05:20:18;;;;;;;3.95;2.53;;;20.30;73.50;;;;;;2264577;59;21090;-78
2022/06/27 05:22:46;;;;;;;6.18;2.58;;;20.40;73.50;;;;;;2264061;59;21048;-79
2022/06/27 05:25:13;;;;;;;4.07;2.53;;;20.40;73.50;;;;;;2265564;59;21063;-82
2022/06/27 05:27:40;;;;;;;3.15;2.80;;;20.50;73.50;;;;;;2269847;55;21083;-83
2022/06/27 05:30:10;;;;;;;4.50;2.62;;;20.50;73.30;;;;;;2269109;55;21068;-83
2022/06/27 05:35:14;;;;;;;3.70;2.53;;;20.60;73.30;;;;;;2353851;57;22078;-74
2022/06/27 05:37:44;;;;;;;5.35;2.90;;;20.60;73.30;;;;;;2345648;57;21121;-74
2022/06/27 05:40:12;;;;;;;4.37;2.80;;;20.70;73.30;;;;;;2364574;56;21797;-74
2022/06/27 05:42:40;;;;;;;3.53;2.83;;;20.80;73.10;;;;;;2373375;56;21035;-74
2022/06/27 05:45:10;;;;;;;4.95;2.83;;;20.80;72.90;;;;;;2372828;56;21066;-74
2022/06/27 05:47:38;;;;;;;3.60;2.47;;;20.90;72.80;;;;;;2371521;55;21130;-74
2022/06/27 05:50:07;;;;;;;4.95;3.42;;;20.90;72.80;;;;;;2372906;56;21062;-74
2022/06/27 05:52:35;;;;;;;5.30;2.65;;;21.00;72.80;;;;;;2373272;56;21110;-74
2022/06/27 05:55:05;;;;;;;4.87;3.12;;;21.10;72.80;;;;;;2372330;56;21134;-74
2022/06/27 05:57:33;;;;;;;5.45;3.45;;;21.10;72.70;;;;;;2444285;52;21086;-74
2022/06/27 06:00:00;;;;;;;4.40;2.75;;;21.20;72.60;;;;;;2373497;56;21130;-74
2022/06/27 06:02:28;;;;;;;5.37;3.33;;;21.20;72.70;;;;;;2372803;56;21050;-74
2022/06/27 06:04:56;;;;;;;4.62;3.50;;;21.20;72.90;;;;;;2373898;56;21607;-74
2022/06/27 06:07:23;;;;;;;4.62;3.10;;;21.30;72.90;;;;;;2373624;56;21047;-74
2022/06/27 06:09:52;;;;;;;4.53;3.20;;;21.40;72.60;;;;;;2373840;56;21055;-74
2022/06/27 06:12:20;;;;;;;4.20;3.03;;;21.40;72.60;;;;;;2373760;56;21051;-74
2022/06/27 06:14:49;;;;;;;6.20;3.70;;;21.50;72.50;;;;;;2372724;56;21205;-74
2022/06/27 06:17:17;;;;;;;4.97;3.30;;;21.60;72.40;;;;;;2568186;52;21118;-74
2022/06/27 06:19:44;;;;;;;4.00;3.10;;;21.70;72.40;;;;;;2374139;56;21039;-74
2022/06/27 06:22:12;;;;;;;4.72;3.60;;;21.70;71.90;;;;;;2373684;56;21075;-74
2022/06/27 06:24:40;;;;;;;4.40;3.08;;;21.80;72.00;;;;;;2372786;56;21083;-74
2022/06/27 06:27:07;;;;;;;5.85;3.72;;;21.80;72.20;;;;;;2372042;56;21037;-74
2022/06/27 06:29:35;;;;;;;6.85;3.65;;;21.80;72.30;;;;;;2373445;56;21742;-74
2022/06/27 06:32:03;;;;;;;7.47;4.00;;;21.90;71.90;;;;;;2373918;56;21110;-74
2022/06/27 06:34:31;;;;;;;7.22;4.53;;;21.90;71.80;;;;;;2373652;56;21062;-74
2022/06/27 06:36:58;;;;;;;11.10;4.57;;;22.00;72.10;;;;;;2373485;56;21641;-74
2022/06/27 06:39:26;;;;;;;5.07;3.80;;;22.00;71.30;;;;;;2373132;56;21047;-74
2022/06/27 06:41:54;;;;;;;5.95;3.50;;;22.10;71.60;;;;;;2373774;56;21051;-74
2022/06/27 06:44:22;;;;;;;5.30;3.60;;;22.20;71.70;;;;;;2373170;56;21122;-74
2022/06/27 06:46:49;;;;;;;4.30;3.80;;;22.30;72.10;;;;;;2372768;56;21058;-75
2022/06/27 06:49:17;;;;;;;5.85;3.47;;;22.30;71.70;;;;;;2373038;56;21055;-74
2022/06/27 06:51:44;;;;;;;4.40;3.58;;;22.50;71.60;;;;;;2373098;56;21115;-74
2022/06/27 06:54:12;;;;;;;6.07;3.62;;;22.50;71.30;;;;;;2372514;56;21154;-75
2022/06/27 06:56:40;;;;;;;4.95;4.22;;;22.60;71.00;;;;;;2372315;56;21652;-76
2022/06/27 06:59:08;;;;;;;7.55;4.00;;;22.70;70.80;;;;;;2372575;56;21031;-76
2022/06/27 07:01:36;;;;;;;5.10;4.62;;;22.80;70.70;;;;;;2386248;52;21047;-76
2022/06/27 07:04:05;;;;;;;7.20;4.37;;;22.80;70.40;;;;;;2371625;56;21031;-76
2022/06/27 07:06:33;;;;;;;7.25;4.03;;;22.90;70.60;;;;;;2409551;52;21090;-77
2022/06/27 07:09:01;;;;;;;4.93;3.22;;;23.00;70.10;;;;;;2375770;52;21047;-77
2022/06/27 07:11:31;;;;;;;6.07;4.25;;;23.00;70.60;;;;;;2373397;56;21059;-76
2022/06/27 07:13:59;;;;;;;4.07;3.37;;;23.10;70.00;;;;;;2373105;56;21611;-76
2022/06/27 07:16:27;;;;;;;4.93;3.85;;;23.10;69.70;;;;;;2373044;56;21321;-76
2022/06/27 07:18:56;;;;;;;7.07;4.07;;;23.20;70.10;;;;;;2372728;56;21110;-74
2022/06/27 07:21:26;;;;;;;5.75;4.20;;;23.30;69.80;;;;;;2373061;56;21309;-74
2022/06/27 07:23:53;;;;;;;6.00;4.10;;;23.30;70.10;;;;;;2372714;56;21166;-75
2022/06/27 07:26:23;;;;;;;5.25;4.20;;;23.40;69.50;;;;;;2376626;52;21046;-75
2022/06/27 07:28:51;;;;;;;6.12;3.70;;;23.50;69.60;;;;;;2373326;53;21113;-75
2022/06/27 07:31:18;;;;;;;6.37;4.70;;;23.60;69.50;;;;;;2393293;52;21574;-75
2022/06/27 07:33:49;;;;;;;5.37;4.00;;;23.70;69.10;;;;;;2439740;52;21130;-75
2022/06/27 07:36:17;;;;;;;4.53;3.97;;;23.70;69.00;;;;;;2391353;52;21914;-75
2022/06/27 07:38:47;;;;;;;5.03;3.70;;;23.90;68.90;;;;;;2374565;52;21130;-75
2022/06/27 07:41:19;;;;;;;5.35;4.40;;;24.00;68.50;;;;;;2375541;52;21190;-75
2022/06/27 07:43:48;;;;;;;7.35;4.65;;;24.00;68.20;;;;;;2389096;52;21097;-74
2022/06/27 07:46:17;;;;;;;6.47;4.85;;;24.10;67.50;;;;;;2371733;56;21050;-75
2022/06/27 07:48:46;;;;;;;4.20;3.78;;;24.20;67.10;;;;;;2371662;56;21062;-75
2022/06/27 07:51:16;;;;;;;7.43;4.18;;;24.20;67.60;;;;;;2400545;52;21043;-74
2022/06/27 07:53:46;;;;;;;5.60;4.35;;;24.30;66.60;;;;;;2536676;52;21046;-75
2022/06/27 07:56:15;;;;;;;5.07;4.45;;;24.40;66.20;;;;;;2521832;52;21114;-75
2022/06/27 07:58:43;;;;;;;8.63;4.55;;;24.40;66.00;;;;;;2370943;56;21119;-74
2022/06/27 08:01:14;;;;;;;6.32;4.25;;;24.40;65.70;;;;;;2366041;56;21060;-74
2022/06/27 08:03:44;;;;;;;6.30;4.60;;;24.40;65.50;;;;;;2622624;52;21067;-75
2022/06/27 08:06:15;;;;;;;7.35;5.05;;;24.30;65.50;;;;;;2549710;52;21047;-75
2022/06/27 08:11:22;;;;;;;9.60;4.95;;;24.30;65.70;;;;;;2352745;57;22069;-74
2022/06/27 08:13:51;;;;;;;8.85;5.00;;;24.30;65.90;;;;;;2344781;57;21072;-75
2022/06/27 08:16:20;;;;;;;7.00;5.10;;;24.20;65.70;;;;;;2339549;57;21039;-74
2022/06/27 08:18:50;;;;;;;6.37;4.85;;;24.10;66.10;;;;;;2349687;56;21061;-75
2022/06/27 08:21:25;;;;;;;8.93;5.70;;;24.10;66.40;;;;;;2375377;56;21043;-74
2022/06/27 08:23:56;;;;;;;9.00;5.72;;;24.20;66.30;;;;;;2375014;56;21055;-74
2022/06/27 08:26:24;;;;;;;9.00;5.70;;;24.10;66.10;;;;;;2375073;56;21056;-74
2022/06/27 08:28:53;;;;;;;5.78;5.22;;;24.10;66.30;;;;;;2375079;56;21755;-75
2022/06/27 08:31:21;;;;;;;9.63;4.70;;;24.00;66.90;;;;;;2374530;56;21058;-74
2022/06/27 08:33:49;;;;;;;7.07;4.70;;;24.00;67.40;;;;;;2375189;56;21400;-75
2022/06/27 08:36:19;;;;;;;6.72;5.28;;;24.00;67.60;;;;;;2374908;56;21043;-74
2022/06/27 08:38:48;;;;;;;9.68;5.53;;;24.00;67.70;;;;;;2559126;52;21059;-75
2022/06/27 08:41:17;;;;;;;10.55;5.35;;;24.00;67.90;;;;;;2375238;56;21050;-74
2022/06/27 08:43:46;;;;;;;5.75;4.45;;;24.10;68.20;;;;;;2375253;56;21118;-74
2022/06/27 08:46:15;;;;;;;8.20;5.57;;;24.20;68.60;;;;;;2374699;56;21091;-74
2022/06/27 08:48:45;;;;;;;8.13;6.35;;;24.20;68.30;;;;;;2375314;56;21039;-75
2022/06/27 08:51:13;;;;;;;6.55;5.60;;;24.20;68.20;;;;;;2375324;56;21058;-75
2022/06/27 08:53:41;;;;;;;15.55;6.22;;;24.20;68.40;;;;;;2375286;56;21178;-75
2022/06/27 08:56:12;;;;;;;9.27;4.75;;;24.30;68.60;;;;;;2374778;56;21505;-75
2022/06/27 08:58:42;;;;;;;8.15;5.65;;;24.40;68.80;;;;;;2375569;56;21113;-75
2022/06/27 09:01:11;;;;;;;9.70;6.35;;;24.50;68.40;;;;;;2374619;56;21533;-75
2022/06/27 09:03:38;;;;;;;10.07;5.90;;;24.50;67.70;;;;;;2375288;56;21043;-75
2022/06/27 09:06:10;;;;;;;8.57;5.95;;;24.60;67.60;;;;;;2375032;56;21031;-75
2022/06/27 09:08:55;;;;;;;13.65;7.93;;;24.60;67.30;;;;;;2374606;56;21083;-75
2022/06/27 09:11:29;;;;;;;8.18;5.82;;;24.60;66.90;;;;;;2375126;56;21098;-74
2022/06/27 09:13:56;;;;;;;13.20;6.30;;;24.60;67.10;;;;;;2374762;56;21047;-75
2022/06/27 09:16:24;;;;;;;8.40;6.10;;;24.60;67.40;;;;;;2375050;56;21095;-75
2022/06/27 09:18:52;;;;;;;9.38;6.47;;;24.60;67.10;;;;;;2386101;52;21111;-75
2022/06/27 09:21:20;;;;;;;8.80;7.47;;;24.70;67.10;;;;;;2374956;56;21123;-75
2022/06/27 09:23:49;;;;;;;12.43;8.85;;;24.80;67.70;;;;;;2374126;56;21054;-75
2022/06/27 09:26:20;;;;;;;10.60;7.43;;;24.70;66.50;;;;;;2373763;56;21055;-74
2022/06/27 09:28:50;;;;;;;8.60;7.70;;;24.70;67.10;;;;;;2607297;52;21637;-74
2022/06/27 09:34:25;;;;;;;13.45;7.45;;;24.60;67.40;;;;;;2355439;57;22074;-75
2022/06/27 09:36:55;;;;;;;9.25;7.32;;;24.60;67.80;;;;;;2347330;57;21058;-74
2022/06/27 09:39:28;;;;;;;10.60;7.30;;;24.60;67.90;;;;;;2357972;56;21133;-74
2022/06/27 09:41:59;;;;;;;10.70;7.18;;;24.70;68.00;;;;;;2375735;56;21042;-75
2022/06/27 09:44:30;;;;;;;11.35;6.82;;;24.80;67.40;;;;;;2374819;56;21035;-75
2022/06/27 09:47:04;;;;;;;9.10;7.45;;;24.90;67.40;;;;;;2375043;56;21533;-74
2022/06/27 09:49:34;;;;;;;8.52;7.57;;;25.10;67.00;;;;;;2375390;53;21070;-75
2022/06/27 09:52:08;;;;;;;8.77;7.87;;;25.20;66.80;;;;;;2375376;56;21023;-75
2022/06/27 09:54:38;;;;;;;11.85;8.27;;;25.20;66.40;;;;;;2375352;56;21027;-75
2022/06/27 09:57:07;;;;;;;14.70;8.02;;;25.20;66.40;;;;;;2374666;56;21047;-74
2022/06/27 09:59:36;;;;;;;10.57;7.10;;;25.20;66.40;;;;;;2375105;56;21046;-75
2022/06/27 10:02:05;;;;;;;12.98;8.77;;;25.20;66.10;;;;;;2375106;56;21031;-75
2022/06/27 10:04:35;;;;;;;12.60;8.70;;;25.30;66.10;;;;;;2374348;56;21668;-75
2022/06/27 10:07:07;;;;;;;13.70;8.70;;;25.40;65.90;;;;;;2381716;52;21214;-75
2022/06/27 10:09:36;;;;;;;10.80;8.90;;;25.50;65.70;;;;;;2378945;52;21548;-74
2022/06/27 10:14:32;;;;;;;11.88;8.07;;;25.40;64.70;;;;;;2305900;58;21740;-74
2022/06/27 10:17:00;;;;;;;12.30;8.73;;;25.30;65.10;;;;;;2305460;58;21030;-73
2022/06/27 10:19:29;;;;;;;9.30;8.32;;;25.30;65.10;;;;;;2294437;58;21626;-74
2022/06/27 10:21:57;;;;;;;10.82;8.00;;;25.20;65.40;;;;;;2511913;55;21132;-74
2022/06/27 10:24:32;;;;;;;17.02;9.50;;;25.30;65.20;;;;;;2279702;59;21159;-73
2022/06/27 10:27:03;;;;;;;10.73;9.48;;;25.30;64.80;;;;;;2279399;59;21053;-74
2022/06/27 10:29:41;;;;;;;9.50;7.15;;;25.40;64.80;;;;;;2279636;59;21144;-74
2022/06/27 10:32:39;;;;;;;11.02;9.57;;;25.40;65.20;;;;;;2279761;59;21128;-74
2022/06/27 10:35:15;;;;;;;11.82;9.15;;;25.50;65.00;;;;;;2278280;59;21076;-73
2022/06/27 10:37:45;;;;;;;14.90;9.70;;;25.50;64.90;;;;;;2278774;59;21619;-74
2022/06/27 10:40:48;;;;;;;10.02;7.93;;;25.60;64.60;;;;;;2279481;59;21142;-74
2022/06/27 10:43:59;;;;;;;11.38;7.60;;;25.60;64.80;;;;;;2278425;59;21164;-74
2022/06/27 10:46:43;;;;;;;9.32;7.10;;;25.70;65.00;;;;;;2510441;55;21080;-74
2022/06/27 10:49:22;;;;;;;15.13;8.10;;;25.80;65.20;;;;;;2278604;59;21083;-73
2022/06/27 10:51:49;;;;;;;10.20;8.07;;;25.90;65.50;;;;;;2278801;59;21128;-74
2022/06/27 10:54:17;;;;;;;9.85;7.78;;;25.80;64.60;;;;;;2278321;59;21084;-73
2022/06/27 10:56:47;;;;;;;10.90;7.43;;;25.80;65.20;;;;;;2277887;59;21076;-74
2022/06/27 11:00:04;;;;;;;12.82;8.80;;;25.80;65.10;;;;;;2278009;59;21065;-73
2022/06/27 11:02:33;;;;;;;10.50;7.12;;;25.90;64.80;;;;;;2278352;59;21064;-74
2022/06/27 11:05:01;;;;;;;9.82;8.15;;;25.90;64.30;;;;;;2510711;55;21575;-73
2022/06/27 11:07:29;;;;;;;13.30;6.35;;;26.00;64.20;;;;;;2278108;59;21614;-74
2022/06/27 11:09:57;;;;;;;9.93;7.28;;;26.10;64.10;;;;;;2278630;59;21230;-74
2022/06/27 11:12:32;;;;;;;10.93;7.20;;;26.20;64.20;;;;;;2278771;59;21124;-74
2022/06/27 11:15:01;;;;;;;10.45;8.05;;;26.40;64.20;;;;;;2277100;59;21135;-74
2022/06/27 11:17:37;;;;;;;14.00;7.03;;;26.50;63.40;;;;;;2278261;59;21571;-74
2022/06/27 11:20:17;;;;;;;12.10;7.62;;;26.60;63.30;;;;;;2278638;59;21068;-74
2022/06/27 11:22:46;;;;;;;10.15;7.18;;;26.70;62.80;;;;;;2511287;55;21144;-73
2022/06/27 11:25:14;;;;;;;11.27;8.35;;;26.80;62.50;;;;;;2278407;59;21105;-74
2022/06/27 11:27:46;;;;;;;10.02;7.78;;;26.80;62.70;;;;;;2278334;59;21056;-74
2022/06/27 11:33:22;;;;;;;11.07;7.57;;;26.60;62.00;;;;;;2278324;59;21020;-74
2022/06/27 11:35:51;;;;;;;10.35;7.47;;;26.60;62.10;;;;;;2278075;59;21720;-73
2022/06/27 11:38:24;;;;;;;8.65;6.80;;;26.80;62.20;;;;;;2278606;59;21721;-74
2022/06/27 11:41:02;;;;;;;;;;;26.90;62.40;;;;;;2514321;54;21132;-74
2022/06/27 11:43:56;;;;;;;8.55;7.30;;;27.00;62.10;;;;;;2278820;59;20118;-74
2022/06/27 11:46:32;;;;;;;11.23;7.28;;;27.20;61.20;;;;;;2277810;59;21156;-74
2022/06/27 11:49:06;;;;;;;9.10;6.68;;;27.30;60.80;;;;;;2279022;59;21417;-74
2022/06/27 11:51:36;;;;;;;11.55;7.85;;;27.40;60.20;;;;;;2511149;55;21053;-74
2022/06/27 11:54:07;;;;;;;12.35;8.75;;;27.30;60.10;;;;;;2278432;59;21124;-74
2022/06/27 11:56:38;;;;;;;16.40;10.80;;;27.20;60.00;;;;;;2277778;59;21567;-74
2022/06/27 11:59:08;;;;;;;15.15;10.40;;;27.10;60.00;;;;;;2278125;59;21132;-74
2022/06/27 12:01:51;;;;;;;17.62;11.73;;;27.10;59.90;;;;;;2511095;55;21642;-74
2022/06/27 12:04:20;;;;;;;14.70;10.75;;;27.00;60.10;;;;;;2278750;59;21637;-73
2022/06/27 12:06:52;;;;;;;17.20;12.95;;;26.90;60.20;;;;;;2510657;55;21068;-74
2022/06/27 12:09:20;;;;;;;14.65;10.65;;;26.90;59.90;;;;;;2278556;59;21582;-73
2022/06/27 12:11:57;;;;;;;13.35;10.23;;;26.80;60.30;;;;;;2278518;59;21617;-74
2022/06/27 12:14:26;;;;;;;12.57;9.63;;;26.70;60.30;;;;;;2278345;59;21069;-74
2022/06/27 12:16:55;;;;;;;12.13;8.70;;;26.80;60.80;;;;;;2278211;59;21076;-74
2022/06/27 12:19:24;;;;;;;14.13;8.57;;;26.70;60.60;;;;;;2278267;59;21626;-74
2022/06/27 12:21:51;;;;;;;17.67;10.45;;;26.70;61.40;;;;;;2278406;59;21747;-74
2022/06/27 12:24:19;;;;;;;12.70;8.95;;;26.70;60.70;;;;;;2511189;55;21462;-74
2022/06/27 12:26:47;;;;;;;12.05;9.13;;;26.70;60.60;;;;;;2510430;55;21332;-74
2022/06/27 12:29:15;;;;;;;11.88;9.07;;;26.60;60.30;;;;;;2278156;59;21128;-74
2022/06/27 12:31:43;;;;;;;11.30;9.30;;;26.60;60.90;;;;;;2278256;59;21570;-74
2022/06/27 12:34:10;;;;;;;9.40;7.35;;;26.70;60.60;;;;;;2278489;59;21049;-75
2022/06/27 12:36:38;;;;;;;11.88;9.02;;;26.90;61.60;;;;;;2278019;59;21618;-74
2022/06/27 12:39:07;;;;;;;13.60;8.65;;;27.00;60.60;;;;;;2278171;59;21140;-74
2022/06/27 12:41:35;;;;;;;13.05;9.10;;;27.10;60.10;;;;;;2278547;59;21057;-74
2022/06/27 12:44:04;;;;;;;16.10;10.88;;;27.10;59.50;;;;;;2278044;59;21148;-74
2022/06/27 12:46:32;;;;;;;14.27;9.57;;;27.10;58.90;;;;;;2278290;59;21195;-74
2022/06/27 12:48:59;;;;;;;12.15;9.27;;;27.00;59.10;;;;;;2278665;59;21115;-74
2022/06/27 12:51:29;;;;;;;12.73;10.00;;;27.10;59.00;;;;;;2278164;59;21059;-73
2022/06/27 12:53:57;;;;;;;11.73;9.40;;;27.00;58.70;;;;;;2510733;55;21081;-74
2022/06/27 12:56:25;;;;;;;9.43;8.02;;;27.00;59.30;;;;;;2277833;59;21486;-74
2022/06/27 12:58:53;;;;;;;10.27;8.32;;;27.00;58.90;;;;;;2277739;59;21068;-74
2022/06/27 13:01:21;;;;;;;13.20;8.18;;;27.00;59.00;;;;;;2278449;59;21307;-74
2022/06/27 13:03:48;;;;;;;9.05;7.32;;;26.90;58.70;;;;;;2278311;59;21665;-75
2022/06/27 13:06:16;;;;;;;8.60;7.47;;;26.80;59.00;;;;;;2278366;59;21136;-74
2022/06/27 13:08:44;;;;;;;9.00;7.45;;;26.80;59.00;;;;;;2278440;59;21065;-74
2022/06/27 13:11:11;;;;;;;10.27;8.90;;;26.80;58.90;;;;;;2278492;59;22096;-74
2022/06/27 13:13:39;;;;;;;9.43;8.20;;;26.80;58.80;;;;;;2510538;55;21658;-74
2022/06/27 13:16:08;;;;;;;9.32;7.93;;;26.70;58.70;;;;;;2278020;59;21575;-74